createdAt,value
2019-02-09T00:00:34.927Z,0.00
2019-02-09T00:01:34.922Z,0.00
2019-02-09T00:02:34.901Z,0.00
2019-02-09T00:03:34.910Z,0.00
2019-02-09T00:04:34.880Z,0.00
2019-02-09T00:05:34.868Z,0.00
2019-02-09T00:06:34.864Z,0.00
2019-02-09T00:07:34.846Z,0.00
2019-02-09T00:08:34.854Z,0.00
2019-02-09T00:09:34.834Z,0.00
2019-02-09T00:10:34.814Z,0.00
2019-02-09T00:11:34.804Z,0.00
2019-02-09T00:12:34.791Z,0.00
2019-02-09T00:13:34.822Z,0.00
2019-02-09T00:14:34.772Z,0.00
2019-02-09T00:15:34.766Z,0.00
2019-02-09T00:16:34.759Z,0.00
2019-02-09T00:17:34.741Z,0.00
2019-02-09T00:18:34.730Z,0.00
2019-02-09T00:19:34.754Z,0.00
2019-02-09T00:20:34.710Z,0.00
2019-02-09T00:21:34.695Z,0.00
2019-02-09T00:22:34.690Z,0.00
2019-02-09T00:23:34.674Z,0.00
2019-02-09T00:24:34.666Z,0.00
2019-02-09T00:25:34.674Z,0.00
2019-02-09T00:26:34.642Z,0.00
2019-02-09T00:27:34.630Z,0.00
2019-02-09T00:28:34.621Z,0.00
2019-02-09T00:29:34.628Z,0.00
2019-02-09T00:30:34.604Z,0.00
2019-02-09T00:31:34.593Z,0.00
2019-02-09T00:32:34.584Z,0.00
2019-02-09T00:33:34.568Z,0.00
2019-02-09T00:34:34.652Z,0.00
2019-02-09T00:35:34.548Z,0.00
2019-02-09T00:36:34.533Z,0.00
2019-02-09T00:37:34.540Z,0.00
2019-02-09T00:38:34.510Z,0.00
2019-02-09T00:39:34.522Z,0.00
2019-02-09T00:40:34.530Z,0.00
2019-02-09T00:41:34.482Z,0.00
2019-02-09T00:42:34.474Z,0.00
2019-02-09T00:43:34.459Z,0.00
2019-02-09T00:44:34.444Z,0.00
2019-02-09T00:45:34.440Z,0.00
2019-02-09T00:46:34.440Z,0.00
2019-02-09T00:47:34.419Z,0.00
2019-02-09T00:48:34.402Z,0.00
2019-02-09T00:49:34.397Z,0.00
2019-02-09T00:50:34.383Z,0.00
2019-02-09T00:51:34.400Z,0.00
2019-02-09T00:52:34.359Z,0.00
2019-02-09T00:53:34.350Z,0.00
2019-02-09T00:54:34.339Z,0.00
2019-02-09T00:55:34.325Z,0.00
2019-02-09T00:56:34.336Z,0.00
2019-02-09T00:57:34.306Z,0.00
2019-02-09T00:58:34.311Z,0.00
2019-02-09T00:59:34.290Z,0.00
2019-02-09T01:00:34.272Z,0.00
2019-02-09T01:01:34.281Z,0.00
2019-02-09T01:02:34.271Z,0.00
2019-02-09T01:03:34.238Z,0.00
2019-02-09T01:04:34.226Z,0.00
2019-02-09T01:05:34.219Z,0.00
2019-02-09T01:06:34.242Z,0.00
2019-02-09T01:07:34.196Z,0.00
2019-02-09T01:08:34.186Z,0.00
2019-02-09T01:09:34.175Z,0.00
2019-02-09T01:10:34.165Z,0.00
2019-02-09T01:11:34.163Z,0.00
2019-02-09T01:12:34.171Z,0.00
2019-02-09T01:13:34.129Z,0.00
2019-02-09T01:14:34.123Z,0.00
2019-02-09T01:15:34.109Z,0.00
2019-02-09T01:16:34.101Z,0.00
2019-02-09T01:17:34.088Z,0.00
2019-02-09T01:18:34.102Z,0.00
2019-02-09T01:19:34.064Z,0.00
2019-02-09T01:20:34.074Z,0.00
2019-02-09T01:21:34.046Z,0.00
2019-02-09T01:22:34.029Z,0.00
2019-02-09T01:23:34.020Z,0.00
2019-02-09T01:24:34.028Z,0.00
2019-02-09T01:25:33.997Z,0.00
2019-02-09T01:26:33.987Z,0.00
2019-02-09T01:27:33.983Z,0.00
2019-02-09T01:28:34.001Z,0.00
2019-02-09T01:29:33.954Z,0.00
2019-02-09T01:30:33.945Z,0.00
2019-02-09T01:31:33.940Z,0.00
2019-02-09T01:32:33.921Z,0.00
2019-02-09T01:33:33.912Z,0.00
2019-02-09T01:34:33.923Z,0.00
2019-02-09T01:35:33.902Z,0.00
2019-02-09T01:36:33.877Z,0.00
2019-02-09T01:37:33.866Z,0.00
2019-02-09T01:38:33.858Z,0.00
2019-02-09T01:39:33.847Z,0.00
2019-02-09T01:40:33.848Z,0.00
2019-02-09T01:41:33.826Z,0.00
2019-02-09T01:42:33.814Z,0.00
2019-02-09T01:43:33.803Z,0.00
2019-02-09T01:44:33.797Z,0.00
2019-02-09T01:45:33.799Z,0.00
2019-02-09T01:46:33.807Z,0.00
2019-02-09T01:47:33.756Z,0.00
2019-02-09T01:48:33.746Z,0.00
2019-02-09T01:49:33.734Z,0.00
2019-02-09T01:50:33.731Z,0.00
2019-02-09T01:51:33.719Z,0.00
2019-02-09T01:52:33.720Z,0.00
2019-02-09T01:53:33.691Z,0.00
2019-02-09T01:54:33.684Z,0.00
2019-02-09T01:55:33.667Z,0.00
2019-02-09T01:56:33.660Z,0.00
2019-02-09T01:57:33.649Z,0.00
2019-02-09T01:58:33.651Z,0.00
2019-02-09T01:59:33.626Z,0.00
2019-02-09T02:00:33.619Z,0.00
2019-02-09T02:01:33.612Z,0.00
2019-02-09T02:02:33.592Z,0.00
2019-02-09T02:03:33.603Z,0.00
2019-02-09T02:04:33.570Z,0.00
2019-02-09T02:05:33.561Z,0.00
2019-02-09T02:06:33.549Z,0.00
2019-02-09T02:07:33.537Z,0.00
2019-02-09T02:08:33.559Z,0.00
2019-02-09T02:09:33.517Z,0.00
2019-02-09T02:10:33.506Z,0.00
2019-02-09T02:11:33.499Z,0.00
2019-02-09T02:12:33.487Z,0.00
2019-02-09T02:13:33.476Z,0.00
2019-02-09T02:14:33.507Z,0.00
2019-02-09T02:15:33.454Z,0.00
2019-02-09T02:16:33.444Z,0.00
2019-02-09T02:17:33.432Z,0.00
2019-02-09T02:18:33.422Z,0.00
2019-02-09T02:19:33.408Z,0.00
2019-02-09T02:20:33.426Z,0.00
2019-02-09T02:21:33.389Z,0.00
2019-02-09T02:22:33.380Z,0.00
2019-02-09T02:23:33.371Z,0.00
2019-02-09T02:24:33.355Z,0.00
2019-02-09T02:25:33.359Z,0.00
2019-02-09T02:26:33.336Z,0.00
2019-02-09T02:27:33.326Z,0.00
2019-02-09T02:28:33.332Z,0.00
2019-02-09T02:29:33.304Z,0.00
2019-02-09T02:30:33.294Z,0.00
2019-02-09T02:31:33.285Z,0.00
2019-02-09T02:32:33.269Z,0.00
2019-02-09T02:33:33.286Z,0.00
2019-02-09T02:34:33.254Z,0.00
2019-02-09T02:35:33.284Z,0.00
2019-02-09T02:36:33.235Z,0.00
2019-02-09T02:37:33.223Z,0.00
2019-02-09T02:38:33.207Z,0.00
2019-02-09T02:39:33.200Z,0.00
2019-02-09T02:40:33.184Z,0.00
2019-02-09T02:41:33.200Z,0.00
2019-02-09T02:42:33.168Z,0.00
2019-02-09T02:43:33.148Z,0.00
2019-02-09T02:44:33.143Z,0.00
2019-02-09T02:45:33.129Z,0.00
2019-02-09T02:46:33.117Z,0.00
2019-02-09T02:47:33.130Z,0.00
2019-02-09T02:48:33.096Z,0.00
2019-02-09T02:49:33.084Z,0.00
2019-02-09T02:50:33.110Z,0.00
2019-02-09T02:51:33.067Z,0.00
2019-02-09T02:52:33.060Z,0.00
2019-02-09T02:53:33.045Z,0.00
2019-02-09T02:54:33.034Z,0.00
2019-02-09T02:55:33.024Z,0.00
2019-02-09T02:56:33.036Z,0.00
2019-02-09T02:57:33.023Z,0.00
2019-02-09T02:58:32.990Z,0.00
2019-02-09T02:59:32.977Z,0.00
2019-02-09T03:00:33.200Z,0.00
2019-02-09T03:01:32.957Z,0.00
2019-02-09T03:02:32.947Z,0.00
2019-02-09T03:03:32.951Z,0.00
2019-02-09T03:04:32.923Z,0.00
2019-02-09T03:05:32.917Z,0.00
2019-02-09T03:06:32.903Z,0.00
2019-02-09T03:07:32.907Z,0.00
2019-02-09T03:08:32.901Z,0.00
2019-02-09T03:09:32.874Z,0.00
2019-02-09T03:10:32.861Z,0.00
2019-02-09T03:11:32.872Z,0.00
2019-02-09T03:12:32.844Z,0.00
2019-02-09T03:13:32.832Z,0.00
2019-02-09T03:14:32.826Z,0.00
2019-02-09T03:15:32.807Z,0.00
2019-02-09T03:16:32.795Z,0.00
2019-02-09T03:17:32.807Z,0.00
2019-02-09T03:18:32.775Z,0.00
2019-02-09T03:19:32.762Z,0.00
2019-02-09T03:20:32.801Z,0.00
2019-02-09T03:21:32.741Z,0.00
2019-02-09T03:22:32.731Z,0.00
2019-02-09T03:23:32.718Z,0.00
2019-02-09T03:24:32.711Z,0.00
2019-02-09T03:25:32.699Z,0.00
2019-02-09T03:26:32.732Z,0.00
2019-02-09T03:27:32.682Z,0.00
2019-02-09T03:28:32.675Z,0.00
2019-02-09T03:29:32.654Z,0.00
2019-02-09T03:30:45.753Z,0.00
2019-02-09T03:31:33.666Z,0.00
2019-02-09T03:32:32.627Z,0.00
2019-02-09T03:33:32.619Z,0.00
2019-02-09T03:34:32.608Z,0.00
2019-02-09T03:35:32.601Z,0.00
2019-02-09T03:36:32.583Z,0.00
2019-02-09T03:37:32.605Z,0.00
2019-02-09T03:38:32.563Z,0.00
2019-02-09T03:39:32.553Z,0.00
2019-02-09T03:40:32.537Z,0.00
2019-02-09T03:41:32.529Z,0.00
2019-02-09T03:42:32.520Z,0.00
2019-02-09T03:43:32.524Z,0.00
2019-02-09T03:44:32.496Z,0.00
2019-02-09T03:45:32.490Z,0.00
2019-02-09T03:46:32.475Z,0.00
2019-02-09T03:47:32.465Z,0.00
2019-02-09T03:48:32.464Z,0.00
2019-02-09T03:49:32.440Z,0.00
2019-02-09T03:50:32.444Z,0.00
2019-02-09T03:51:32.421Z,0.00
2019-02-09T03:52:32.409Z,0.00
2019-02-09T03:53:32.416Z,0.00
2019-02-09T03:54:32.389Z,0.00
2019-02-09T03:55:32.374Z,0.00
2019-02-09T03:56:32.365Z,0.00
2019-02-09T03:57:32.355Z,0.00
2019-02-09T03:58:32.395Z,0.00
2019-02-09T03:59:32.334Z,0.00
2019-02-09T04:00:32.320Z,0.00
2019-02-09T04:01:32.313Z,0.00
2019-02-09T04:02:32.297Z,0.00
2019-02-09T04:03:32.288Z,0.00
2019-02-09T04:04:32.306Z,0.00
2019-02-09T04:05:32.273Z,0.00
2019-02-09T04:06:32.254Z,0.00
2019-02-09T04:07:32.247Z,0.00
2019-02-09T04:08:32.245Z,0.00
2019-02-09T04:09:32.224Z,0.00
2019-02-09T04:10:32.233Z,0.00
2019-02-09T04:11:32.200Z,0.00
2019-02-09T04:12:32.210Z,0.00
2019-02-09T04:13:32.180Z,0.00
2019-02-09T04:14:32.177Z,0.00
2019-02-09T04:15:32.196Z,0.00
2019-02-09T04:16:32.149Z,0.00
2019-02-09T04:17:32.133Z,0.00
2019-02-09T04:18:32.123Z,0.00
2019-02-09T04:19:32.114Z,0.00
2019-02-09T04:20:32.101Z,0.00
2019-02-09T04:21:32.110Z,0.00
2019-02-09T04:22:32.084Z,0.00
2019-02-09T04:23:32.068Z,0.00
2019-02-09T04:24:32.057Z,0.00
2019-02-09T04:25:32.054Z,0.00
2019-02-09T04:26:32.055Z,0.00
2019-02-09T04:27:32.025Z,0.00
2019-02-09T04:28:32.090Z,0.00
2019-02-09T04:29:32.005Z,0.00
2019-02-09T04:30:32.008Z,0.00
2019-02-09T04:31:32.016Z,0.00
2019-02-09T04:32:31.969Z,0.00
2019-02-09T04:33:31.962Z,0.00
2019-02-09T04:34:31.952Z,0.00
2019-02-09T04:35:31.944Z,0.00
2019-02-09T04:36:31.926Z,0.00
2019-02-09T04:37:31.934Z,0.00
2019-02-09T04:38:31.914Z,0.00
2019-02-09T04:39:31.902Z,0.00
2019-02-09T04:40:31.890Z,0.00
2019-02-09T04:41:31.870Z,0.00
2019-02-09T04:42:31.908Z,0.00
2019-02-09T04:43:31.861Z,0.00
2019-02-09T04:44:31.850Z,0.00
2019-02-09T04:45:31.831Z,0.00
2019-02-09T04:46:31.818Z,0.00
2019-02-09T04:47:31.832Z,0.00
2019-02-09T04:48:31.829Z,0.00
2019-02-09T04:49:31.783Z,0.00
2019-02-09T04:50:31.779Z,0.00
2019-02-09T04:51:31.763Z,0.00
2019-02-09T04:52:31.752Z,0.00
2019-02-09T04:53:31.743Z,0.00
2019-02-09T04:54:31.750Z,0.00
2019-02-09T04:55:31.721Z,0.00
2019-02-09T04:56:31.714Z,0.00
2019-02-09T04:57:31.698Z,0.00
2019-02-09T04:58:31.688Z,0.00
2019-02-09T04:59:31.714Z,0.00
2019-02-09T05:00:31.664Z,0.00
2019-02-09T05:01:31.657Z,0.00
2019-02-09T05:02:31.652Z,0.00
2019-02-09T05:03:31.632Z,0.00
2019-02-09T05:04:31.621Z,0.00
2019-02-09T05:05:31.630Z,0.00
2019-02-09T05:06:31.619Z,0.00
2019-02-09T05:07:31.588Z,0.00
2019-02-09T05:08:31.582Z,0.00
2019-02-09T05:09:31.565Z,0.00
2019-02-09T05:10:31.615Z,0.00
2019-02-09T05:11:31.544Z,0.00
2019-02-09T05:12:31.572Z,0.00
2019-02-09T05:13:31.523Z,0.00
2019-02-09T05:14:31.512Z,0.00
2019-02-09T05:15:31.509Z,0.00
2019-02-09T05:16:31.495Z,0.00
2019-02-09T05:17:31.482Z,0.00
2019-02-09T05:18:31.496Z,0.00
2019-02-09T05:19:31.461Z,0.00
2019-02-09T05:20:31.448Z,0.00
2019-02-09T05:21:31.439Z,0.00
2019-02-09T05:22:31.427Z,0.00
2019-02-09T05:23:31.439Z,0.00
2019-02-09T05:24:31.423Z,0.00
2019-02-09T05:25:31.393Z,0.00
2019-02-09T05:26:31.381Z,0.00
2019-02-09T05:27:31.383Z,0.00
2019-02-09T05:28:31.359Z,0.00
2019-02-09T05:29:31.349Z,0.00
2019-02-09T05:30:31.341Z,0.00
2019-02-09T05:31:31.341Z,0.00
2019-02-09T05:32:31.319Z,0.00
2019-02-09T05:33:31.306Z,0.00
2019-02-09T05:34:31.295Z,0.00
2019-02-09T05:35:31.284Z,0.00
2019-02-09T05:36:31.295Z,0.00
2019-02-09T05:37:31.261Z,0.00
2019-02-09T05:38:31.249Z,0.00
2019-02-09T05:39:31.240Z,0.00
2019-02-09T05:40:31.228Z,0.00
2019-02-09T05:41:31.228Z,0.00
2019-02-09T05:42:31.207Z,0.00
2019-02-09T05:43:31.197Z,0.00
2019-02-09T05:44:31.183Z,0.00
2019-02-09T05:45:31.222Z,0.00
2019-02-09T05:46:31.165Z,0.00
2019-02-09T05:47:31.155Z,0.00
2019-02-09T05:48:31.141Z,0.00
2019-02-09T05:49:31.133Z,0.00
2019-02-09T05:50:31.117Z,0.00
2019-02-09T05:51:31.120Z,0.00
2019-02-09T05:52:31.096Z,0.00
2019-02-09T05:53:31.090Z,0.00
2019-02-09T05:54:31.075Z,0.00
2019-02-09T05:55:31.066Z,0.00
2019-02-09T05:56:31.076Z,0.00
2019-02-09T05:57:31.041Z,0.00
2019-02-09T05:58:31.055Z,0.00
2019-02-09T05:59:31.022Z,0.00
2019-02-09T06:00:31.063Z,0.00
2019-02-09T06:01:32.561Z,0.00
2019-02-09T06:02:31.010Z,0.00
2019-02-09T06:03:31.012Z,0.00
2019-02-09T06:04:30.986Z,0.00
2019-02-09T06:05:30.956Z,0.00
2019-02-09T06:06:30.944Z,0.00
2019-02-09T06:07:30.935Z,0.00
2019-02-09T06:08:30.923Z,0.00
2019-02-09T06:09:30.967Z,0.00
2019-02-09T06:10:30.914Z,0.00
2019-02-09T06:11:30.889Z,0.00
2019-02-09T06:12:30.880Z,0.00
2019-02-09T06:13:30.877Z,0.00
2019-02-09T06:14:30.857Z,0.00
2019-02-09T06:15:30.868Z,0.00
2019-02-09T06:16:30.928Z,0.00
2019-02-09T06:17:30.833Z,0.00
2019-02-09T06:18:30.815Z,0.00
2019-02-09T06:19:30.824Z,0.00
2019-02-09T06:20:30.820Z,0.00
2019-02-09T06:21:30.791Z,0.00
2019-02-09T06:22:30.769Z,0.00
2019-02-09T06:23:30.758Z,0.00
2019-02-09T06:24:30.755Z,0.00
2019-02-09T06:25:30.738Z,0.00
2019-02-09T06:26:30.764Z,4.00
2019-02-09T06:27:30.714Z,4.00
2019-02-09T06:28:30.704Z,4.00
2019-02-09T06:29:30.692Z,4.00
2019-02-09T06:30:30.690Z,4.00
2019-02-09T06:31:30.672Z,8.00
2019-02-09T06:32:30.687Z,8.00
2019-02-09T06:33:30.651Z,8.00
2019-02-09T06:34:30.640Z,12.00
2019-02-09T06:35:30.639Z,12.00
2019-02-09T06:36:30.618Z,20.00
2019-02-09T06:37:30.605Z,32.00
2019-02-09T06:38:30.613Z,36.00
2019-02-09T06:39:30.583Z,36.00
2019-02-09T06:40:30.581Z,44.00
2019-02-09T06:41:30.571Z,44.00
2019-02-09T06:42:30.564Z,44.00
2019-02-09T06:43:30.547Z,56.00
2019-02-09T06:44:30.571Z,64.00
2019-02-09T06:45:30.525Z,68.00
2019-02-09T06:46:30.506Z,76.00
2019-02-09T06:47:30.495Z,84.00
2019-02-09T06:48:30.492Z,68.00
2019-02-09T06:49:30.477Z,56.00
2019-02-09T06:50:30.484Z,64.00
2019-02-09T06:51:30.456Z,80.00
2019-02-09T06:52:30.443Z,96.00
2019-02-09T06:53:30.454Z,60.00
2019-02-09T06:54:30.422Z,40.00
2019-02-09T06:55:30.411Z,60.00
2019-02-09T06:56:30.415Z,92.00
2019-02-09T06:57:30.399Z,84.00
2019-02-09T06:58:30.418Z,160.00
2019-02-09T06:59:30.365Z,272.00
2019-02-09T07:00:30.353Z,240.00
2019-02-09T07:01:30.351Z,160.00
2019-02-09T07:02:30.332Z,196.00
2019-02-09T07:03:30.320Z,260.00
2019-02-09T07:04:30.332Z,216.00
2019-02-09T07:05:30.309Z,248.00
2019-02-09T07:06:30.287Z,316.00
2019-02-09T07:07:30.285Z,424.00
2019-02-09T07:08:30.265Z,440.00
2019-02-09T07:09:30.256Z,332.00
2019-02-09T07:10:30.259Z,340.00
2019-02-09T07:11:30.242Z,576.00
2019-02-09T07:12:30.226Z,656.00
2019-02-09T07:13:30.213Z,516.00
2019-02-09T07:14:30.200Z,596.00
2019-02-09T07:15:30.212Z,520.00
2019-02-09T07:16:30.211Z,436.00
2019-02-09T07:17:30.166Z,612.00
2019-02-09T07:18:30.160Z,864.00
2019-02-09T07:19:30.151Z,856.00
2019-02-09T07:20:30.138Z,1136.00
2019-02-09T07:21:30.123Z,1308.00
2019-02-09T07:22:30.133Z,1132.00
2019-02-09T07:23:30.102Z,1244.00
2019-02-09T07:24:30.093Z,1376.00
2019-02-09T07:25:30.086Z,1604.00
2019-02-09T07:26:30.072Z,1684.00
2019-02-09T07:27:30.102Z,1680.00
2019-02-09T07:28:30.052Z,1788.00
2019-02-09T07:29:30.043Z,2132.00
2019-02-09T07:30:30.037Z,2280.00
2019-02-09T07:31:30.016Z,2192.00
2019-02-09T07:32:30.004Z,2172.00
2019-02-09T07:33:30.013Z,1688.00
2019-02-09T07:34:29.984Z,1588.00
2019-02-09T07:35:29.977Z,1572.00
2019-02-09T07:36:29.969Z,1740.00
2019-02-09T07:37:29.952Z,1852.00
2019-02-09T07:38:29.962Z,2236.00
2019-02-09T07:39:29.933Z,2068.00
2019-02-09T07:40:29.937Z,1420.00
2019-02-09T07:41:29.907Z,1256.00
2019-02-09T07:42:29.895Z,1436.00
2019-02-09T07:43:29.884Z,1624.00
2019-02-09T07:44:29.887Z,2008.00
2019-02-09T07:45:29.864Z,1924.00
2019-02-09T07:46:29.850Z,2252.00
2019-02-09T07:47:29.842Z,2712.00
2019-02-09T07:48:29.828Z,3248.00
2019-02-09T07:49:29.839Z,2584.00
2019-02-09T07:50:29.842Z,1512.00
2019-02-09T07:51:29.796Z,864.00
2019-02-09T07:52:29.794Z,912.00
2019-02-09T07:53:29.785Z,1372.00
2019-02-09T07:54:29.771Z,2012.00
2019-02-09T07:55:29.756Z,3148.00
2019-02-09T07:56:29.783Z,2768.00
2019-02-09T07:57:29.732Z,1864.00
2019-02-09T07:58:29.720Z,1572.00
2019-02-09T07:59:29.710Z,1828.00
2019-02-09T08:00:29.705Z,1472.00
2019-02-09T08:01:29.693Z,1500.00
2019-02-09T08:02:29.692Z,1908.00
2019-02-09T08:03:29.670Z,2676.00
2019-02-09T08:04:29.654Z,3972.00
2019-02-09T08:05:29.644Z,3228.00
2019-02-09T08:06:29.647Z,3060.00
2019-02-09T08:07:29.622Z,2840.00
2019-02-09T08:08:29.616Z,2872.00
2019-02-09T08:09:29.603Z,3476.00
2019-02-09T08:10:29.592Z,4260.00
2019-02-09T08:11:29.598Z,6172.00
2019-02-09T08:12:29.570Z,5200.00
2019-02-09T08:13:29.577Z,5440.00
2019-02-09T08:14:29.547Z,6172.00
2019-02-09T08:15:29.579Z,7772.00
2019-02-09T08:16:29.547Z,8672.00
2019-02-09T08:17:29.516Z,6036.00
2019-02-09T08:18:29.508Z,4840.00
2019-02-09T08:19:29.496Z,3172.00
2019-02-09T08:20:29.482Z,3824.00
2019-02-09T08:21:29.510Z,4284.00
2019-02-09T08:22:29.461Z,4760.00
2019-02-09T08:23:29.454Z,4488.00
2019-02-09T08:24:29.440Z,5796.00
2019-02-09T08:25:29.432Z,5312.00
2019-02-09T08:26:29.418Z,3672.00
2019-02-09T08:27:29.431Z,3100.00
2019-02-09T08:28:29.413Z,3364.00
2019-02-09T08:29:29.394Z,4144.00
2019-02-09T08:30:29.375Z,4140.00
2019-02-09T08:31:29.363Z,5144.00
2019-02-09T08:32:29.353Z,4364.00
2019-02-09T08:33:29.368Z,5704.00
2019-02-09T08:34:29.332Z,5312.00
2019-02-09T08:35:29.320Z,5476.00
2019-02-09T08:36:29.336Z,7844.00
2019-02-09T08:37:29.307Z,15136.00
2019-02-09T08:38:29.328Z,14432.00
2019-02-09T08:39:29.277Z,15008.00
2019-02-09T08:40:29.271Z,12044.00
2019-02-09T08:41:29.259Z,13200.00
2019-02-09T08:42:29.256Z,14528.00
2019-02-09T08:43:29.236Z,10900.00
2019-02-09T08:44:29.281Z,14464.00
2019-02-09T08:45:29.216Z,14784.00
2019-02-09T08:46:29.201Z,10660.00
2019-02-09T08:47:29.199Z,14264.00
2019-02-09T08:48:29.181Z,12028.00
2019-02-09T08:49:29.174Z,13676.00
2019-02-09T08:50:29.201Z,10808.00
2019-02-09T08:51:29.147Z,9464.00
2019-02-09T08:52:29.144Z,10472.00
2019-02-09T08:53:29.138Z,8508.00
2019-02-09T08:54:29.118Z,7540.00
2019-02-09T08:55:29.104Z,7024.00
2019-02-09T08:56:29.107Z,7000.00
2019-02-09T08:57:29.081Z,9096.00
2019-02-09T08:58:29.070Z,9864.00
2019-02-09T08:59:29.060Z,7452.00
2019-02-09T09:00:29.051Z,6408.00
2019-02-09T09:01:29.065Z,6228.00
2019-02-09T09:02:29.031Z,5264.00
2019-02-09T09:03:29.028Z,5088.00
2019-02-09T09:04:29.007Z,6220.00
2019-02-09T09:05:29.012Z,7004.00
2019-02-09T09:06:28.989Z,6896.00
2019-02-09T09:07:28.991Z,6364.00
2019-02-09T09:08:28.966Z,5592.00
2019-02-09T09:09:28.953Z,6544.00
2019-02-09T09:10:28.946Z,5068.00
2019-02-09T09:11:28.964Z,4800.00
2019-02-09T09:12:28.923Z,5712.00
2019-02-09T09:13:28.918Z,7216.00
2019-02-09T09:14:28.899Z,8136.00
2019-02-09T09:15:28.889Z,6296.00
2019-02-09T09:16:28.877Z,9160.00
2019-02-09T09:17:28.888Z,8208.00
2019-02-09T09:18:28.869Z,9676.00
2019-02-09T09:19:28.865Z,17088.00
2019-02-09T09:20:28.835Z,13620.00
2019-02-09T09:21:28.836Z,16832.00
2019-02-09T09:22:28.860Z,9740.00
2019-02-09T09:23:28.802Z,11684.00
2019-02-09T09:24:28.800Z,18528.00
2019-02-09T09:25:28.788Z,11756.00
2019-02-09T09:26:28.770Z,10352.00
2019-02-09T09:27:28.756Z,10324.00
2019-02-09T09:28:28.771Z,10228.00
2019-02-09T09:29:28.737Z,7980.00
2019-02-09T09:30:28.732Z,6792.00
2019-02-09T09:31:28.717Z,6944.00
2019-02-09T09:32:28.990Z,6652.00
2019-02-09T09:33:28.734Z,9508.00
2019-02-09T09:34:28.681Z,12344.00
2019-02-09T09:35:28.677Z,12656.00
2019-02-09T09:36:28.659Z,10788.00
2019-02-09T09:37:28.650Z,18304.00
2019-02-09T09:38:28.640Z,15152.00
2019-02-09T09:39:28.646Z,14972.00
2019-02-09T09:40:28.615Z,13032.00
2019-02-09T09:41:28.614Z,11908.00
2019-02-09T09:42:28.597Z,7324.00
2019-02-09T09:43:28.587Z,8532.00
2019-02-09T09:44:28.624Z,10272.00
2019-02-09T09:45:28.561Z,12168.00
2019-02-09T09:46:28.553Z,10016.00
2019-02-09T09:47:28.547Z,7872.00
2019-02-09T09:48:28.531Z,9684.00
2019-02-09T09:49:28.522Z,9040.00
2019-02-09T09:50:28.526Z,16576.00
2019-02-09T09:51:28.497Z,8784.00
2019-02-09T09:52:28.490Z,17696.00
2019-02-09T09:53:28.479Z,17216.00
2019-02-09T09:54:28.474Z,16672.00
2019-02-09T09:55:28.480Z,11900.00
2019-02-09T09:56:28.448Z,18112.00
2019-02-09T09:57:28.432Z,20416.00
2019-02-09T09:58:28.440Z,13352.00
2019-02-09T09:59:28.418Z,18176.00
2019-02-09T10:00:28.404Z,23680.00
2019-02-09T10:01:28.389Z,20544.00
2019-02-09T10:02:36.306Z,14136.00
2019-02-09T10:03:29.381Z,7328.00
2019-02-09T10:04:28.357Z,7600.00
2019-02-09T10:05:28.347Z,10160.00
2019-02-09T10:06:28.335Z,8708.00
2019-02-09T10:07:28.344Z,7548.00
2019-02-09T10:08:28.311Z,9928.00
2019-02-09T10:09:28.303Z,7288.00
2019-02-09T10:10:28.292Z,6804.00
2019-02-09T10:11:28.287Z,7152.00
2019-02-09T10:12:28.315Z,9188.00
2019-02-09T10:13:28.259Z,20096.00
2019-02-09T10:14:28.248Z,19232.00
2019-02-09T10:15:28.238Z,21984.00
2019-02-09T10:16:28.228Z,24672.00
2019-02-09T10:17:28.217Z,17824.00
2019-02-09T10:18:28.247Z,14432.00
2019-02-09T10:19:28.191Z,12832.00
2019-02-09T10:20:28.183Z,13264.00
2019-02-09T10:21:28.177Z,8716.00
2019-02-09T10:22:28.160Z,5364.00
2019-02-09T10:23:28.151Z,3976.00
2019-02-09T10:24:28.159Z,3048.00
2019-02-09T10:25:28.140Z,2304.00
2019-02-09T10:26:28.117Z,2096.00
2019-02-09T10:27:28.106Z,2196.00
2019-02-09T10:28:28.095Z,2932.00
2019-02-09T10:29:28.106Z,6268.00
2019-02-09T10:30:28.071Z,8800.00
2019-02-09T10:31:28.073Z,10508.00
2019-02-09T10:32:28.051Z,11828.00
2019-02-09T10:33:28.043Z,11896.00
2019-02-09T10:34:28.074Z,7824.00
2019-02-09T10:35:28.016Z,6564.00
2019-02-09T10:36:28.009Z,7944.00
2019-02-09T10:37:27.997Z,13212.00
2019-02-09T10:38:27.988Z,11600.00
2019-02-09T10:39:27.984Z,15080.00
2019-02-09T10:40:27.983Z,25088.00
2019-02-09T10:41:29.381Z,15356.00
2019-02-09T10:42:27.941Z,16120.00
2019-02-09T10:43:27.930Z,14996.00
2019-02-09T10:44:27.920Z,13232.00
2019-02-09T10:45:27.908Z,14432.00
2019-02-09T10:46:27.903Z,19392.00
2019-02-09T10:47:27.910Z,18592.00
2019-02-09T10:48:27.881Z,24576.00
2019-02-09T10:49:27.869Z,19744.00
2019-02-09T10:50:27.857Z,26112.00
2019-02-09T10:51:27.846Z,20224.00
2019-02-09T10:52:27.857Z,19776.00
2019-02-09T10:53:27.827Z,24064.00
2019-02-09T10:54:27.811Z,23712.00
2019-02-09T10:55:27.799Z,26048.00
2019-02-09T10:56:27.790Z,12916.00
2019-02-09T10:57:27.806Z,10212.00
2019-02-09T10:58:27.768Z,9800.00
2019-02-09T10:59:27.760Z,8752.00
2019-02-09T11:00:27.744Z,8668.00
2019-02-09T11:01:27.744Z,9524.00
2019-02-09T11:02:27.724Z,14292.00
2019-02-09T11:03:27.744Z,15416.00
2019-02-09T11:04:27.702Z,10996.00
2019-02-09T11:05:27.692Z,11176.00
2019-02-09T11:06:27.680Z,14940.00
2019-02-09T11:07:27.672Z,13060.00
2019-02-09T11:08:27.658Z,12776.00
2019-02-09T11:09:27.665Z,12676.00
2019-02-09T11:10:27.638Z,10932.00
2019-02-09T11:11:27.628Z,9976.00
2019-02-09T11:12:27.637Z,9940.00
2019-02-09T11:13:27.602Z,8916.00
2019-02-09T11:14:27.594Z,9176.00
2019-02-09T11:15:27.583Z,11620.00
2019-02-09T11:16:27.577Z,9868.00
2019-02-09T11:17:27.581Z,8560.00
2019-02-09T11:18:27.559Z,8452.00
2019-02-09T11:19:27.539Z,8112.00
2019-02-09T11:20:27.527Z,6356.00
2019-02-09T11:21:27.524Z,7852.00
2019-02-09T11:22:27.528Z,8408.00
2019-02-09T11:23:27.496Z,9280.00
2019-02-09T11:24:27.484Z,8308.00
2019-02-09T11:25:27.473Z,8368.00
2019-02-09T11:26:27.465Z,10996.00
2019-02-09T11:27:28.169Z,14032.00
2019-02-09T11:28:27.461Z,18496.00
2019-02-09T11:29:27.441Z,19360.00
2019-02-09T11:30:27.419Z,18944.00
2019-02-09T11:31:27.409Z,19744.00
2019-02-09T11:32:27.420Z,14368.00
2019-02-09T11:33:27.396Z,12600.00
2019-02-09T11:34:27.377Z,10624.00
2019-02-09T11:35:27.366Z,12996.00
2019-02-09T11:36:27.377Z,16768.00
2019-02-09T11:37:27.368Z,19424.00
2019-02-09T11:38:27.358Z,19712.00
2019-02-09T11:39:27.324Z,20320.00
2019-02-09T11:40:27.309Z,20640.00
2019-02-09T11:41:27.299Z,20192.00
2019-02-09T11:42:27.288Z,15096.00
2019-02-09T11:43:27.280Z,20224.00
2019-02-09T11:44:27.314Z,16576.00
2019-02-09T11:45:27.258Z,15612.00
2019-02-09T11:46:27.256Z,18560.00
2019-02-09T11:47:27.238Z,18112.00
2019-02-09T11:48:27.233Z,18016.00
2019-02-09T11:49:27.217Z,14912.00
2019-02-09T11:50:27.220Z,11792.00
2019-02-09T11:51:27.197Z,15236.00
2019-02-09T11:52:27.184Z,23072.00
2019-02-09T11:53:27.171Z,12244.00
2019-02-09T11:54:27.162Z,15156.00
2019-02-09T11:55:27.168Z,13732.00
2019-02-09T11:56:27.141Z,8804.00
2019-02-09T11:57:27.135Z,9264.00
2019-02-09T11:58:27.118Z,13636.00
2019-02-09T11:59:27.105Z,13100.00
2019-02-09T12:00:27.126Z,11984.00
2019-02-09T12:01:27.108Z,14596.00
2019-02-09T12:02:27.094Z,17312.00
2019-02-09T12:03:27.064Z,16120.00
2019-02-09T12:04:27.053Z,15308.00
2019-02-09T12:05:27.039Z,13660.00
2019-02-09T12:06:27.048Z,10896.00
2019-02-09T12:07:27.019Z,7416.00
2019-02-09T12:08:27.005Z,6584.00
2019-02-09T12:09:26.997Z,6408.00
2019-02-09T12:10:26.985Z,6628.00
2019-02-09T12:11:26.996Z,6604.00
2019-02-09T12:12:26.971Z,6576.00
2019-02-09T12:13:27.082Z,5948.00
2019-02-09T12:14:26.963Z,5308.00
2019-02-09T12:15:26.930Z,5820.00
2019-02-09T12:16:26.919Z,9300.00
2019-02-09T12:17:26.930Z,8880.00
2019-02-09T12:18:26.918Z,9136.00
2019-02-09T12:19:26.886Z,9564.00
2019-02-09T12:20:26.877Z,9848.00
2019-02-09T12:21:26.873Z,8320.00
2019-02-09T12:22:26.856Z,6892.00
2019-02-09T12:23:26.866Z,4780.00
2019-02-09T12:24:26.830Z,3844.00
2019-02-09T12:25:26.823Z,4132.00
2019-02-09T12:26:26.813Z,5476.00
2019-02-09T12:27:26.799Z,5736.00
2019-02-09T12:28:26.820Z,6360.00
2019-02-09T12:29:26.780Z,5076.00
2019-02-09T12:30:26.766Z,3852.00
2019-02-09T12:31:26.756Z,3936.00
2019-02-09T12:32:26.747Z,5064.00
2019-02-09T12:33:26.736Z,5756.00
2019-02-09T12:34:26.763Z,6472.00
2019-02-09T12:35:26.720Z,8132.00
2019-02-09T12:36:26.705Z,7756.00
2019-02-09T12:37:26.690Z,6968.00
2019-02-09T12:38:26.681Z,6148.00
2019-02-09T12:39:26.672Z,4888.00